createdAt,value
2018-07-23T00:01:08.612Z,100083.72
2018-07-23T00:03:47.871Z,100078.63
2018-07-23T00:06:21.604Z,100078.79
2018-07-23T00:09:05.860Z,100083.31
2018-07-23T00:11:42.597Z,100079.09
2018-07-23T00:14:17.128Z,100077.28
2018-07-23T00:16:51.860Z,100081.17
2018-07-23T00:19:33.716Z,100077.27
2018-07-23T00:22:06.240Z,100078.74
2018-07-23T00:24:39.727Z,100080.14
2018-07-23T00:27:15.936Z,100079.53
2018-07-23T00:29:48.691Z,100080.41
2018-07-23T00:32:22.708Z,100078.49
2018-07-23T00:34:55.457Z,100079.35
2018-07-23T00:37:29.193Z,100079.36
2018-07-23T00:40:05.545Z,100079.23
2018-07-23T00:42:38.922Z,100078.96
2018-07-23T00:45:14.195Z,100081.38
2018-07-23T00:47:47.494Z,100078.61
2018-07-23T00:50:22.160Z,100076.19
2018-07-23T00:52:55.709Z,100077.89
2018-07-23T00:55:30.150Z,100075.02
2018-07-23T00:58:03.076Z,100076.78
2018-07-23T01:00:36.636Z,100080.15
2018-07-23T01:03:09.443Z,100081.94
2018-07-23T01:05:41.912Z,100085.06
2018-07-23T01:08:16.124Z,100088.45
2018-07-23T01:10:50.621Z,100089.62
2018-07-23T01:13:23.118Z,100090.67
2018-07-23T01:15:56.768Z,100093.89
2018-07-23T01:18:29.724Z,100098.98
2018-07-23T01:21:03.124Z,100100.95
2018-07-23T01:23:38.112Z,100093.69
2018-07-23T01:26:11.087Z,100095.88
2018-07-23T01:28:43.508Z,100096.25
2018-07-23T01:31:17.373Z,100097.41
2018-07-23T01:33:50.287Z,100106.01
2018-07-23T01:36:22.814Z,100100.97
2018-07-23T01:38:55.284Z,100097.38
2018-07-23T01:41:28.141Z,100097.20
2018-07-23T01:44:00.645Z,100097.47
2018-07-23T01:46:34.621Z,100098.87
2018-07-23T01:49:07.408Z,100099.97
2018-07-23T01:51:40.664Z,100094.91
2018-07-23T01:54:13.215Z,100095.81
2018-07-23T01:56:45.960Z,100100.25
2018-07-23T01:59:22.724Z,100098.89
2018-07-23T02:01:56.019Z,100103.31
2018-07-23T02:04:35.599Z,100104.09
2018-07-23T02:07:08.364Z,100102.27
2018-07-23T02:09:41.076Z,100102.69
2018-07-23T02:12:13.967Z,100110.25
2018-07-23T02:14:46.752Z,100111.97
2018-07-23T02:17:19.485Z,100113.94
2018-07-23T02:19:52.087Z,100115.33
2018-07-23T02:22:24.892Z,100117.31
2018-07-23T02:24:57.786Z,100117.27
2018-07-23T02:27:30.450Z,100119.31
2018-07-23T02:30:05.811Z,100120.84
2018-07-23T02:32:38.711Z,100117.19
2018-07-23T02:35:11.204Z,100121.09
2018-07-23T02:37:45.152Z,100125.20
2018-07-23T02:40:17.994Z,100135.02
2018-07-23T02:42:50.588Z,100132.03
2018-07-23T02:45:23.434Z,100126.95
2018-07-23T02:47:57.448Z,100129.27
2018-07-23T02:50:29.967Z,100124.03
2018-07-23T02:53:02.543Z,100123.94
2018-07-23T02:55:35.273Z,100127.38
2018-07-23T02:58:07.901Z,100125.48
2018-07-23T03:00:40.477Z,100126.62
2018-07-23T03:03:13.280Z,100127.69
2018-07-23T03:05:46.085Z,100122.91
2018-07-23T03:08:18.861Z,100127.98
2018-07-23T03:10:52.301Z,100129.38
2018-07-23T03:13:28.332Z,100126.19
2018-07-23T03:16:02.663Z,100123.82
2018-07-23T03:18:37.048Z,100122.35
2018-07-23T03:21:09.706Z,100125.71
2018-07-23T03:23:44.029Z,100130.71
2018-07-23T03:26:17.040Z,100133.73
2018-07-23T03:28:50.860Z,100131.81
2018-07-23T03:31:27.555Z,100132.61
2018-07-23T03:34:06.488Z,100136.35
2018-07-23T03:36:39.072Z,100135.64
2018-07-23T03:39:12.660Z,100141.08
2018-07-23T03:41:47.289Z,100142.39
2018-07-23T03:44:20.012Z,100142.10
2018-07-23T03:46:52.419Z,100147.43
2018-07-23T03:49:27.272Z,100151.19
2018-07-23T03:52:00.286Z,100155.58
2018-07-23T03:54:34.483Z,100156.08
2018-07-23T03:57:09.076Z,100159.31
2018-07-23T03:59:41.652Z,100164.32
2018-07-23T04:02:14.360Z,100161.95
2018-07-23T04:04:48.586Z,100163.05
2018-07-23T04:07:21.255Z,100160.27
2018-07-23T04:09:53.893Z,100159.44
2018-07-23T04:12:26.929Z,100160.87
2018-07-23T04:15:00.646Z,100164.05
2018-07-23T04:17:36.362Z,100167.64
2018-07-23T04:20:10.520Z,100170.09
2018-07-23T04:22:43.381Z,100175.72
2018-07-23T04:25:15.831Z,100175.81
2018-07-23T04:27:48.574Z,100177.70
2018-07-23T04:30:21.283Z,100171.05
2018-07-23T04:32:54.300Z,100173.80
2018-07-23T04:35:27.532Z,100175.69
2018-07-23T04:38:01.163Z,100176.52
2018-07-23T04:40:37.641Z,100175.69
2018-07-23T04:43:11.501Z,100177.91
2018-07-23T04:45:44.714Z,100177.78
2018-07-23T04:48:17.207Z,100173.91
2018-07-23T04:50:50.077Z,100175.30
2018-07-23T04:53:22.603Z,100176.72
2018-07-23T04:55:55.492Z,100183.42
2018-07-23T04:58:31.836Z,100174.07
2018-07-23T05:01:04.552Z,100174.80
2018-07-23T05:03:38.637Z,100175.98
2018-07-23T05:06:12.693Z,100175.73
2018-07-23T05:08:45.574Z,100172.05
2018-07-23T05:11:18.048Z,100174.16
2018-07-23T05:13:51.012Z,100173.86
2018-07-23T05:16:23.445Z,100179.27
2018-07-23T05:18:55.932Z,100184.02
2018-07-23T05:21:28.850Z,100180.80
2018-07-23T05:24:01.509Z,100185.83
2018-07-23T05:26:34.128Z,100182.34
2018-07-23T05:29:07.360Z,100182.44
2018-07-23T05:31:40.446Z,100184.84
2018-07-23T05:34:13.059Z,100179.50
2018-07-23T05:36:45.500Z,100178.85
2018-07-23T05:39:19.472Z,100176.69
2018-07-23T05:41:52.087Z,100179.06
2018-07-23T05:44:24.617Z,100180.39
2018-07-23T05:46:59.302Z,100177.91
2018-07-23T05:49:31.821Z,100183.63
2018-07-23T05:52:04.428Z,100178.02
2018-07-23T05:54:41.569Z,100183.19
2018-07-23T05:57:14.348Z,100186.86
2018-07-23T05:59:46.868Z,100184.44
2018-07-23T06:02:19.805Z,100176.47
2018-07-23T06:04:52.457Z,100178.58
2018-07-23T06:07:25.912Z,100177.59
2018-07-23T06:10:00.684Z,100178.38
2018-07-23T06:12:33.742Z,100180.34
2018-07-23T06:15:08.384Z,100181.47
2018-07-23T06:17:41.233Z,100176.05
2018-07-23T06:20:13.877Z,100174.47
2018-07-23T06:22:46.409Z,100178.54
2018-07-23T06:25:19.196Z,100174.62
2018-07-23T06:27:52.630Z,100177.50
2018-07-23T06:30:25.176Z,100178.69
2018-07-23T06:32:58.236Z,100184.75
2018-07-23T06:35:30.735Z,100184.81
2018-07-23T06:38:04.461Z,100190.48
2018-07-23T06:40:37.352Z,100190.77
2018-07-23T06:43:11.451Z,100189.50
2018-07-23T06:45:43.896Z,100189.27
2018-07-23T06:48:16.733Z,100186.88
2018-07-23T06:50:49.239Z,100191.77
2018-07-23T06:53:22.672Z,100194.06
2018-07-23T06:55:57.391Z,100194.86
2018-07-23T06:58:30.980Z,100194.20
2018-07-23T07:01:03.476Z,100198.94
2018-07-23T07:03:37.007Z,100198.19
2018-07-23T07:06:09.427Z,100198.11
2018-07-23T07:08:42.695Z,100200.11
2018-07-23T07:11:16.300Z,100203.30
2018-07-23T07:13:48.865Z,100203.77
2018-07-23T07:16:21.587Z,100202.70
2018-07-23T07:18:55.446Z,100202.41
2018-07-23T07:21:27.879Z,100200.44
2018-07-23T07:24:09.987Z,100206.73
2018-07-23T07:26:42.633Z,100206.17
2018-07-23T07:29:16.108Z,100203.47
2018-07-23T07:31:49.838Z,100207.29
2018-07-23T07:34:22.256Z,100203.58
2018-07-23T07:36:55.957Z,100203.33
2018-07-23T07:39:29.352Z,100201.53
2018-07-23T07:42:04.657Z,100203.83
2018-07-23T07:44:42.565Z,100201.41
2018-07-23T07:47:22.347Z,100195.73
2018-07-23T07:49:55.173Z,100194.08
2018-07-23T07:52:27.531Z,100190.41
2018-07-23T07:55:00.324Z,100190.69
2018-07-23T07:57:33.929Z,100191.09
2018-07-23T08:00:07.501Z,100188.40
2018-07-23T08:02:42.173Z,100187.02
2018-07-23T08:05:14.752Z,100178.44
2018-07-23T08:07:47.309Z,100183.32
2018-07-23T08:10:20.665Z,100186.78
2018-07-23T08:12:56.920Z,100180.81
2018-07-23T08:15:31.602Z,100180.41
2018-07-23T08:18:05.135Z,100176.69
2018-07-23T08:20:38.152Z,100176.94
2018-07-23T08:23:11.132Z,100178.22
2018-07-23T08:25:45.140Z,100178.30
2018-07-23T08:28:22.523Z,100188.05
2018-07-23T08:31:01.779Z,100183.66
2018-07-23T08:33:42.775Z,100187.33
2018-07-23T08:36:22.560Z,100182.55
2018-07-23T08:39:01.731Z,100181.03
2018-07-23T08:41:34.380Z,100182.73
2018-07-23T08:44:09.357Z,100185.52
2018-07-23T08:46:50.019Z,100185.31
2018-07-23T08:49:34.788Z,100181.19
2018-07-23T08:52:13.000Z,100184.53
2018-07-23T08:54:57.822Z,100180.50
2018-07-23T08:57:50.749Z,100185.05
2018-07-23T09:00:27.621Z,100187.19
2018-07-23T09:03:24.413Z,100184.53
2018-07-23T09:06:10.997Z,100185.23
2018-07-23T09:08:43.649Z,100190.75
2018-07-23T09:11:20.294Z,100187.70
2018-07-23T09:13:55.339Z,100183.23
2018-07-23T09:16:31.868Z,100191.23
2018-07-23T09:19:05.832Z,100190.91
2018-07-23T09:21:40.086Z,100193.37
2018-07-23T09:24:12.600Z,100190.44
2018-07-23T09:26:45.866Z,100193.88
2018-07-23T09:29:20.639Z,100190.39
2018-07-23T09:31:54.110Z,100190.07
2018-07-23T09:34:27.097Z,100193.49
2018-07-23T09:36:59.824Z,100193.48
2018-07-23T09:39:33.547Z,100184.62
2018-07-23T09:42:08.253Z,100193.62
2018-07-23T09:44:41.379Z,100192.16
2018-07-23T09:47:17.149Z,100182.16
2018-07-23T09:49:49.613Z,100194.20
2018-07-23T09:52:22.337Z,100191.27
2018-07-23T09:54:56.160Z,100193.90
2018-07-23T09:57:29.623Z,100189.16
2018-07-23T10:00:07.531Z,100188.88
2018-07-23T10:02:41.408Z,100186.50
2018-07-23T10:05:15.497Z,100190.72
2018-07-23T10:07:49.142Z,100182.48
2018-07-23T10:10:23.224Z,100185.28
2018-07-23T10:12:57.669Z,100184.50
2018-07-23T10:15:33.754Z,100186.81
2018-07-23T10:18:06.823Z,100178.04
2018-07-23T10:20:40.425Z,100175.84
2018-07-23T10:23:13.254Z,100176.47
2018-07-23T10:25:45.821Z,100177.88
2018-07-23T10:28:18.339Z,100173.57
2018-07-23T10:30:51.734Z,100173.31
2018-07-23T10:33:27.492Z,100175.34
2018-07-23T10:36:02.300Z,100173.59
2018-07-23T10:38:35.659Z,100171.55
2018-07-23T10:41:12.314Z,100178.14
2018-07-23T10:43:46.180Z,100172.25
2018-07-23T10:46:20.103Z,100175.14
2018-07-23T10:48:57.112Z,100170.91
2018-07-23T10:51:33.974Z,100163.39
2018-07-23T10:54:09.546Z,100162.45
2018-07-23T10:56:44.985Z,100153.20
2018-07-23T10:59:19.632Z,100159.22
2018-07-23T11:01:55.656Z,100155.31
2018-07-23T11:04:36.629Z,100160.19
2018-07-23T11:07:11.840Z,100158.91
2018-07-23T11:09:47.005Z,100161.27
2018-07-23T11:12:25.984Z,100156.14
2018-07-23T11:15:03.587Z,100163.83
2018-07-23T11:17:36.765Z,100160.61
2018-07-23T11:20:13.599Z,100148.96
2018-07-23T11:22:50.183Z,100156.06
2018-07-23T11:25:39.084Z,100155.84
2018-07-23T11:27:58.571Z,100159.87
2018-07-23T11:30:33.611Z,100152.26
2018-07-23T11:33:10.067Z,100151.09
2018-07-23T11:35:43.036Z,100154.91
2018-07-23T11:38:16.046Z,100158.28
2018-07-23T11:40:48.522Z,100154.82
2018-07-23T11:43:24.300Z,100159.31
2018-07-23T11:45:57.019Z,100161.00
2018-07-23T11:48:32.256Z,100160.09
2018-07-23T11:51:07.625Z,100152.57
2018-07-23T11:53:45.673Z,100147.73
2018-07-23T11:56:36.311Z,100148.05
2018-07-23T11:59:11.658Z,100153.93
2018-07-23T12:01:49.771Z,100156.95
2018-07-23T12:04:25.475Z,100138.64
2018-07-23T12:06:59.321Z,100139.47
2018-07-23T12:09:33.855Z,100135.17
2018-07-23T12:12:07.908Z,100139.14
2018-07-23T12:14:41.172Z,100139.46
2018-07-23T12:17:15.495Z,100137.84
2018-07-23T12:19:51.143Z,100134.22
2018-07-23T12:22:24.219Z,100136.02
2018-07-23T12:24:59.620Z,100136.52
2018-07-23T12:27:34.316Z,100134.38
2018-07-23T12:30:06.975Z,100134.30
2018-07-23T12:32:41.538Z,100131.02
2018-07-23T12:35:16.084Z,100127.05
2018-07-23T12:37:50.198Z,100128.13
2018-07-23T12:40:23.456Z,100132.82
2018-07-23T12:42:59.474Z,100128.33
2018-07-23T12:45:32.000Z,100131.87
2018-07-23T12:48:06.589Z,100131.52
2018-07-23T12:50:39.111Z,100127.52
2018-07-23T12:53:14.948Z,100122.61
2018-07-23T12:55:49.570Z,100118.64
2018-07-23T12:58:23.260Z,100117.58
2018-07-23T13:00:56.060Z,100118.28
2018-07-23T13:03:30.686Z,100112.73
2018-07-23T13:06:03.270Z,100113.61
2018-07-23T13:08:36.465Z,100113.54
2018-07-23T13:11:09.303Z,100112.98
2018-07-23T13:13:44.712Z,100102.08
2018-07-23T13:16:18.283Z,100111.48
2018-07-23T13:18:51.851Z,100111.77
2018-07-23T13:21:24.587Z,100112.28
2018-07-23T13:23:59.224Z,100110.73
2018-07-23T13:26:33.626Z,100105.45
2018-07-23T13:29:07.855Z,100107.67
2018-07-23T13:31:45.576Z,100105.18
2018-07-23T13:34:18.306Z,100112.45
2018-07-23T13:36:52.386Z,100116.17
2018-07-23T13:39:25.717Z,100117.95
2018-07-23T13:41:58.944Z,100112.73
2018-07-23T13:44:32.461Z,100105.20
2018-07-23T13:47:05.582Z,100106.74
2018-07-23T13:49:38.959Z,100096.65
2018-07-23T13:52:11.533Z,100096.66
2018-07-23T13:54:44.364Z,100094.14
2018-07-23T13:57:18.777Z,100100.97
2018-07-23T13:59:52.384Z,100097.08
2018-07-23T14:02:26.640Z,100097.00
2018-07-23T14:04:59.173Z,100093.09
2018-07-23T14:07:34.288Z,100092.88
2018-07-23T14:10:12.061Z,100088.22
2018-07-23T14:12:44.704Z,100091.50
2018-07-23T14:15:17.617Z,100092.97
2018-07-23T14:17:50.427Z,100088.31
2018-07-23T14:20:23.138Z,100086.19
2018-07-23T14:22:55.627Z,100085.34
2018-07-23T14:25:29.215Z,100076.23
2018-07-23T14:28:01.914Z,100079.61
2018-07-23T14:30:37.190Z,100075.45
2018-07-23T14:33:09.873Z,100082.11
2018-07-23T14:35:46.032Z,100069.02
2018-07-23T14:38:20.165Z,100070.30
2018-07-23T14:40:52.883Z,100070.16
2018-07-23T14:43:25.475Z,100070.00
2018-07-23T14:45:59.626Z,100069.42
2018-07-23T14:48:33.676Z,100065.13
2018-07-23T14:51:07.460Z,100064.42
2018-07-23T14:53:41.760Z,100059.64
2018-07-23T14:56:14.488Z,100066.52
2018-07-23T14:58:46.850Z,100058.58
2018-07-23T15:01:27.091Z,100061.47
2018-07-23T15:04:02.273Z,100058.22
2018-07-23T15:06:51.156Z,100045.92
2018-07-23T15:09:28.452Z,100047.94
2018-07-23T15:12:01.285Z,100052.50
2018-07-23T15:14:38.482Z,100048.91
2018-07-23T15:17:11.206Z,100047.63
2018-07-23T15:19:43.867Z,100047.25
2018-07-23T15:22:19.737Z,100047.84
2018-07-23T15:25:10.245Z,100050.25
2018-07-23T15:27:47.075Z,100042.20
2018-07-23T15:30:21.424Z,100044.88
2018-07-23T15:32:54.888Z,100037.80
2018-07-23T15:35:29.055Z,100038.77
2018-07-23T15:38:05.628Z,100042.39
2018-07-23T15:40:41.673Z,100033.15
2018-07-23T15:43:16.808Z,100037.75
2018-07-23T15:45:49.553Z,100033.05
2018-07-23T15:48:23.336Z,100040.09
2018-07-23T15:50:57.921Z,100035.39
2018-07-23T15:53:36.619Z,100031.92
2018-07-23T15:56:14.869Z,100030.72
2018-07-23T15:58:48.411Z,100028.23
2018-07-23T16:01:22.634Z,100029.58
2018-07-23T16:03:55.859Z,100030.22
2018-07-23T16:06:30.454Z,100030.52
2018-07-23T16:09:08.527Z,100024.28
2018-07-23T16:11:41.295Z,100027.46
2018-07-23T16:14:15.996Z,100025.28
2018-07-23T16:16:54.345Z,100023.77
2018-07-23T16:19:31.365Z,100014.26
2018-07-23T16:22:05.144Z,100023.43
2018-07-23T16:24:39.472Z,100019.41
2018-07-23T16:27:13.365Z,100021.45
2018-07-23T16:29:46.834Z,100024.63
2018-07-23T16:32:20.187Z,100020.22
2018-07-23T16:34:52.656Z,100021.72
2018-07-23T16:37:26.155Z,100025.05
2018-07-23T16:40:01.135Z,100022.55
2018-07-23T16:42:36.243Z,100020.22
2018-07-23T16:45:08.948Z,100021.81
2018-07-23T16:47:42.232Z,100020.53
2018-07-23T16:50:15.787Z,100017.25
2018-07-23T16:52:48.314Z,100020.70
2018-07-23T16:55:22.474Z,100020.19
2018-07-23T16:57:58.407Z,100016.83
2018-07-23T17:00:34.306Z,100012.33
2018-07-23T17:03:07.593Z,100012.57
2018-07-23T17:05:45.628Z,100012.50
2018-07-23T17:08:22.052Z,100007.02
2018-07-23T17:10:54.914Z,100007.44
2018-07-23T17:13:34.718Z,100009.60
2018-07-23T17:16:29.193Z,100009.98
2018-07-23T17:19:02.975Z,100010.33
2018-07-23T17:21:36.507Z,100013.20
2018-07-23T17:24:09.457Z,100013.50
2018-07-23T17:26:42.645Z,100012.21
2018-07-23T17:29:16.107Z,100014.55
2018-07-23T17:31:48.973Z,100014.41
2018-07-23T17:34:21.744Z,100011.11
2018-07-23T17:36:55.538Z,100015.67
2018-07-23T17:39:33.207Z,100015.36
2018-07-23T17:42:06.829Z,100013.00
2018-07-23T17:44:42.791Z,100013.76
2018-07-23T17:47:15.852Z,100010.23
2018-07-23T17:49:49.988Z,100012.08
2018-07-23T17:52:25.742Z,100011.38
2018-07-23T17:55:00.320Z,100011.48
2018-07-23T17:57:35.537Z,100010.37
2018-07-23T18:00:09.852Z,100009.06
2018-07-23T18:02:48.534Z,100007.41
2018-07-23T18:05:22.802Z,100008.95
2018-07-23T18:07:57.538Z,100010.86
2018-07-23T18:10:33.985Z,100008.19
2018-07-23T18:13:16.385Z,100005.77
2018-07-23T18:15:48.918Z,100000.94
2018-07-23T18:18:23.018Z,100003.33
2018-07-23T18:20:56.961Z,100010.17
2018-07-23T18:23:33.459Z,100010.75
2018-07-23T18:26:08.849Z,100007.66
2018-07-23T18:28:44.039Z,100011.93
2018-07-23T18:31:17.795Z,100008.95
2018-07-23T18:33:50.743Z,100010.78
2018-07-23T18:36:24.194Z,100014.65
2018-07-23T18:39:01.150Z,100012.10
2018-07-23T18:41:36.953Z,100012.38
2018-07-23T18:44:15.720Z,100013.71
2018-07-23T18:46:55.719Z,100014.35
2018-07-23T18:49:52.240Z,100010.36
2018-07-23T18:52:29.622Z,100010.83
2018-07-23T18:55:03.264Z,100007.75
2018-07-23T18:57:35.665Z,100011.89
2018-07-23T19:00:08.146Z,100012.66
2018-07-23T19:02:41.518Z,100010.95
2018-07-23T19:05:15.516Z,100013.51
2018-07-23T19:07:49.766Z,100016.01
2018-07-23T19:10:22.926Z,100020.47
2018-07-23T19:12:57.311Z,100019.08
2018-07-23T19:15:32.525Z,100018.40
2018-07-23T19:18:06.860Z,100019.50
2018-07-23T19:20:48.160Z,100025.78
2018-07-23T19:23:27.326Z,100024.44
2018-07-23T19:26:02.956Z,100028.36
2018-07-23T19:28:39.880Z,100034.69
2018-07-23T19:31:13.550Z,100030.45
2018-07-23T19:33:46.263Z,100034.67
2018-07-23T19:36:19.077Z,100041.47
2018-07-23T19:38:53.680Z,100042.09
2018-07-23T19:41:31.713Z,100036.53
2018-07-23T19:44:37.988Z,100042.40
2018-07-23T19:47:41.375Z,100045.66
2018-07-23T19:50:45.665Z,100045.89
2018-07-23T19:53:59.680Z,100044.27
2018-07-23T19:56:40.652Z,100042.05
2018-07-23T19:59:20.735Z,100042.34
2018-07-23T20:01:54.255Z,100045.88
2018-07-23T20:04:28.832Z,100046.36
2018-07-23T20:07:03.912Z,100048.66
2018-07-23T20:09:37.452Z,100048.55
2018-07-23T20:12:16.766Z,100043.81
2018-07-23T20:14:53.452Z,100048.52
2018-07-23T20:17:29.505Z,100048.02
2018-07-23T20:20:09.265Z,100047.24
2018-07-23T20:22:55.388Z,100049.48
2018-07-23T20:25:30.352Z,100048.54
2018-07-23T20:28:07.928Z,100046.94
2018-07-23T20:30:54.427Z,100049.96
2018-07-23T20:36:04.333Z,100048.62
2018-07-23T20:38:37.088Z,100050.48
2018-07-23T20:41:11.365Z,100058.25
2018-07-23T20:43:46.879Z,100054.22
2018-07-23T20:46:20.964Z,100054.24
2018-07-23T20:48:54.616Z,100056.75
2018-07-23T20:51:32.657Z,100057.10
2018-07-23T20:54:08.388Z,100060.16
2018-07-23T20:56:41.157Z,100060.11
2018-07-23T20:59:15.468Z,100058.22
2018-07-23T21:01:50.220Z,100060.85
2018-07-23T21:04:26.024Z,100056.56
2018-07-23T21:07:00.722Z,100048.05
2018-07-23T21:09:34.837Z,100050.01
2018-07-23T21:12:09.306Z,100050.86
2018-07-23T21:14:41.975Z,100052.91
2018-07-23T21:17:16.360Z,100051.57
2018-07-23T21:19:48.916Z,100053.27
2018-07-23T21:22:22.657Z,100055.33
2018-07-23T21:25:00.525Z,100061.70
2018-07-23T21:27:34.178Z,100065.02
2018-07-23T21:30:09.407Z,100062.84
2018-07-23T21:32:44.455Z,100061.27
2018-07-23T21:35:18.976Z,100063.41
2018-07-23T21:37:53.097Z,100064.50
2018-07-23T21:40:26.173Z,100066.02
2018-07-23T21:43:00.277Z,100062.20
2018-07-23T21:45:34.249Z,100063.79
2018-07-23T21:48:08.123Z,100066.92
2018-07-23T21:50:41.893Z,100069.88
2018-07-23T21:53:19.373Z,100068.86
2018-07-23T21:55:55.327Z,100072.61
2018-07-23T21:58:28.261Z,100070.02
2018-07-23T22:01:01.515Z,100070.81
2018-07-23T22:03:35.774Z,100065.56
2018-07-23T22:06:09.550Z,100071.61
2018-07-23T22:08:45.401Z,100065.89
2018-07-23T22:11:19.127Z,100070.02
2018-07-23T22:13:51.792Z,100067.36
2018-07-23T22:16:25.362Z,100066.84
2018-07-23T22:18:58.838Z,100070.16
2018-07-23T22:21:32.009Z,100073.80
2018-07-23T22:24:06.085Z,100074.99
2018-07-23T22:26:38.675Z,100070.38
2018-07-23T22:29:12.216Z,100076.52
2018-07-23T22:31:45.260Z,100074.31
2018-07-23T22:34:18.056Z,100076.84
2018-07-23T22:36:52.598Z,100066.80
2018-07-23T22:39:28.380Z,100069.45
2018-07-23T22:42:01.863Z,100070.15
2018-07-23T22:44:37.060Z,100070.48
2018-07-23T22:47:13.664Z,100072.44
2018-07-23T22:49:46.348Z,100074.06
2018-07-23T22:52:25.023Z,100066.59
2018-07-23T22:54:57.761Z,100072.23
2018-07-23T22:57:33.298Z,100066.76
2018-07-23T23:00:08.925Z,100066.03
2018-07-23T23:02:42.488Z,100062.73
2018-07-23T23:05:17.549Z,100063.22
2018-07-23T23:07:50.941Z,100062.72
2018-07-23T23:10:26.385Z,100065.67
2018-07-23T23:13:01.554Z,100065.77
2018-07-23T23:15:34.211Z,100065.80
2018-07-23T23:18:06.811Z,100063.23
2018-07-23T23:20:42.512Z,100059.17
2018-07-23T23:23:16.065Z,100058.13
2018-07-23T23:25:48.751Z,100065.98
2018-07-23T23:28:22.766Z,100060.17
2018-07-23T23:30:59.256Z,100066.12
2018-07-23T23:33:32.884Z,100059.69
2018-07-23T23:36:06.832Z,100066.68
2018-07-23T23:38:40.551Z,100064.94
2018-07-23T23:41:13.354Z,100062.36
2018-07-23T23:43:48.861Z,100062.98
2018-07-23T23:46:21.809Z,100062.00
2018-07-23T23:48:55.269Z,100060.98
2018-07-23T23:51:28.232Z,100062.38
2018-07-23T23:54:02.632Z,100063.52
2018-07-23T23:56:35.279Z,100060.13
2018-07-23T23:59:09.258Z,100062.42
